Sembria — V2QG7 — position and weather

sailwx.info

Track history (hours):
 
Tides and Currents Weather Stations Pressure Air Temp Water Temp Dewpoint Dewpoint Depression Visibility Wind Speed Wind Dir Waves Ship Positions

Sembria

Last reported at 2014-Sep-11 02:18 UTC. Time now 2014-Sep-22 20:15 UTC.
Position N 41°00' E 028°60'.
Warning: this ship's position is 11 days out of date.

Length 107 m; draft 3.5 m.

Type: Cargo ship. MMSI: 304010760.

Date/timePositionNaut miles runAvg speedWind from/ knotsBaromVisibWave heightAir tempDewpointWater temp
2014-Sep-11 02:18N 41°00' E 028°60'5 6.4
2014-Sep-11 01:33N 40°57' E 028°56'1 0.7
2014-Sep-11 00:22N 40°58' E 028°55'0 0.0
2014-Sep-10 23:16N 40°58' E 028°55'0 0.0
2014-Sep-10 22:28N 40°58' E 028°55'0 0.0
2014-Sep-10 20:28N 40°58' E 028°55'0 0.0
2014-Sep-10 17:31N 40°58' E 028°55'159 6.6
2014-Sep-09 17:21N 39°45' E 025°49'113 9.5
2014-Sep-09 05:32N 37°53' E 025°45'11 9.8
2014-Sep-09 04:26N 37°42' E 025°48'9 9.4
2014-Sep-09 03:27N 37°33' E 025°51'8 8.9
2014-Sep-09 02:33N 37°26' E 025°54'9 8.9
2014-Sep-09 01:33N 37°18' E 025°59'8 8.5
2014-Sep-09 00:33N 37°11' E 026°04'9 8.6
2014-Sep-08 23:33N 37°03' E 026°10'21 8.7
2014-Sep-08 21:10N 36°46' E 026°24'7 8.7
2014-Sep-08 20:24N 36°41' E 026°30'  
2014-Sep-04 10:29N 31°27' E 031°46'0 0.0
2014-Sep-04 01:08N 31°27' E 031°46'0 0.0
2014-Sep-04 00:26N 31°27' E 031°46'0 0.0
2014-Sep-03 23:11N 31°27' E 031°46'0 0.0
2014-Sep-03 22:20N 31°27' E 031°46'0 0.0
2014-Sep-03 21:26N 31°27' E 031°46'0 0.0
2014-Sep-03 19:23N 31°27' E 031°46'  
Track history (hours):
 
Tides and Currents Weather Stations Pressure Air Temp Water Temp Dewpoint Dewpoint Depression Visibility Wind Speed Wind Dir Waves Ship Positions

Sembria

Last reported at 2014-Sep-11 02:18 UTC. Time now 2014-Sep-22 20:15 UTC.
Position N 41°00' E 028°60'.
Warning: this ship's position is 11 days out of date.

Length 107 m; draft 3.5 m.

Type: Cargo ship. MMSI: 304010760.

Date/timePositionNaut miles runAvg speedWind from/ knotsBaromVisibWave heightAir tempDewpointWater temp
2014-Sep-11 02:18N 41°00' E 028°60'5 6.4
2014-Sep-11 01:33N 40°57' E 028°56'1 0.7
2014-Sep-11 00:22N 40°58' E 028°55'0 0.0
2014-Sep-10 23:16N 40°58' E 028°55'0 0.0
2014-Sep-10 22:28N 40°58' E 028°55'0 0.0
2014-Sep-10 20:28N 40°58' E 028°55'0 0.0
2014-Sep-10 17:31N 40°58' E 028°55'159 6.6
2014-Sep-09 17:21N 39°45' E 025°49'113 9.5
2014-Sep-09 05:32N 37°53' E 025°45'11 9.8
2014-Sep-09 04:26N 37°42' E 025°48'9 9.4
2014-Sep-09 03:27N 37°33' E 025°51'8 8.9
2014-Sep-09 02:33N 37°26' E 025°54'9 8.9
2014-Sep-09 01:33N 37°18' E 025°59'8 8.5
2014-Sep-09 00:33N 37°11' E 026°04'9 8.6
2014-Sep-08 23:33N 37°03' E 026°10'21 8.7
2014-Sep-08 21:10N 36°46' E 026°24'7 8.7
2014-Sep-08 20:24N 36°41' E 026°30'  
2014-Sep-04 10:29N 31°27' E 031°46'0 0.0
2014-Sep-04 01:08N 31°27' E 031°46'0 0.0
2014-Sep-04 00:26N 31°27' E 031°46'0 0.0
2014-Sep-03 23:11N 31°27' E 031°46'0 0.0
2014-Sep-03 22:20N 31°27' E 031°46'0 0.0
2014-Sep-03 21:26N 31°27' E 031°46'0 0.0
2014-Sep-03 19:23N 31°27' E 031°46'  

Dump ship's entire track history